createdAt,value
2019-02-17T00:00:18.639Z,5.73
2019-02-17T00:01:19.597Z,5.72
2019-02-17T00:02:20.286Z,5.69
2019-02-17T00:03:21.250Z,5.76
2019-02-17T00:04:21.660Z,5.64
2019-02-17T00:05:21.859Z,5.73
2019-02-17T00:06:23.545Z,5.65
2019-02-17T00:07:23.951Z,5.69
2019-02-17T00:08:24.914Z,5.65
2019-02-17T00:09:26.245Z,5.69
2019-02-17T00:10:26.674Z,5.64
2019-02-17T00:11:27.643Z,5.64
2019-02-17T00:12:28.175Z,5.73
2019-02-17T00:13:28.587Z,5.79
2019-02-17T00:14:29.998Z,5.72
2019-02-17T00:15:30.963Z,5.76
2019-02-17T00:16:31.198Z,5.79
2019-02-17T00:17:31.913Z,5.79
2019-02-17T00:18:33.153Z,5.77
2019-02-17T00:19:33.289Z,5.81
2019-02-17T00:20:34.430Z,5.79
2019-02-17T00:21:35.393Z,5.77
2019-02-17T00:22:35.798Z,5.73
2019-02-17T00:23:36.203Z,5.73
2019-02-17T00:24:36.611Z,5.72
2019-02-17T00:25:37.851Z,5.73
2019-02-17T00:26:38.542Z,5.72
2019-02-17T00:27:38.509Z,5.62
2019-02-17T00:28:39.033Z,5.55
2019-02-17T00:29:39.607Z,5.58
2019-02-17T00:30:40.174Z,5.51
2019-02-17T00:31:41.379Z,5.46
2019-02-17T00:32:41.789Z,5.51
2019-02-17T00:33:43.197Z,5.55
2019-02-17T00:34:44.168Z,5.51
2019-02-17T00:35:44.580Z,5.47
2019-02-17T00:36:45.010Z,5.44
2019-02-17T00:37:46.259Z,5.4
2019-02-17T00:38:46.673Z,5.38
2019-02-17T00:39:47.354Z,5.33
2019-02-17T00:40:48.193Z,5.25
2019-02-17T00:41:48.878Z,5.26
2019-02-17T00:42:50.291Z,5.28
2019-02-17T00:43:51.553Z,5.31
2019-02-17T00:44:52.683Z,5.4
2019-02-17T00:45:53.931Z,5.33
2019-02-17T00:46:54.339Z,5.4
2019-02-17T00:47:54.300Z,5.37
2019-02-17T00:48:55.984Z,5.38
2019-02-17T00:49:56.947Z,5.37
2019-02-17T00:50:57.796Z,5.37
2019-02-17T00:51:58.756Z,5.43
2019-02-17T00:52:58.894Z,5.44
2019-02-17T00:54:00.128Z,5.44
2019-02-17T00:55:01.374Z,5.44
2019-02-17T00:56:02.097Z,5.52
2019-02-17T00:57:02.507Z,5.47
2019-02-17T00:58:03.756Z,5.44
2019-02-17T00:59:11.566Z,5.36
2019-02-17T00:59:16.205Z,5.41
2019-02-17T01:00:16.752Z,5.36
2019-02-17T01:01:17.444Z,5.38
2019-02-17T01:02:17.966Z,5.33
2019-02-17T01:03:19.375Z,5.36
2019-02-17T01:04:20.059Z,5.31
2019-02-17T01:05:21.300Z,5.37
2019-02-17T01:06:21.276Z,5.36
2019-02-17T01:07:22.404Z,5.28
2019-02-17T01:08:23.087Z,5.38
2019-02-17T01:09:24.218Z,5.37
2019-02-17T01:10:25.340Z,5.33
2019-02-17T01:11:26.331Z,5.37
2019-02-17T01:12:27.042Z,5.33
2019-02-17T01:13:28.281Z,5.31
2019-02-17T01:14:28.411Z,5.25
2019-02-17T01:15:29.095Z,5.22
2019-02-17T01:16:29.503Z,5.18
2019-02-17T01:17:31.023Z,5.29
2019-02-17T01:18:31.709Z,5.23
2019-02-17T01:19:32.393Z,5.18
2019-02-17T01:20:33.583Z,5.2
2019-02-17T01:21:34.269Z,5.15
2019-02-17T01:22:35.283Z,5.12
2019-02-17T01:23:35.246Z,5
2019-02-17T01:24:35.656Z,5.08
2019-02-17T01:25:36.684Z,5.04
2019-02-17T01:26:36.643Z,5.05
2019-02-17T01:27:38.051Z,4.87
2019-02-17T01:28:39.364Z,4.89
2019-02-17T01:29:40.051Z,4.89
2019-02-17T01:30:40.327Z,4.86
2019-02-17T01:31:41.566Z,4.9
2019-02-17T01:32:42.256Z,4.86
2019-02-17T01:33:42.774Z,4.9
2019-02-17T01:34:43.737Z,4.83
2019-02-17T01:35:44.434Z,4.9
2019-02-17T01:36:44.751Z,4.9
2019-02-17T01:37:45.437Z,4.86
2019-02-17T01:38:46.568Z,4.89
2019-02-17T01:39:46.971Z,4.83
2019-02-17T01:40:47.500Z,4.84
2019-02-17T01:41:48.907Z,4.83
2019-02-17T01:42:49.867Z,4.89
2019-02-17T01:43:50.277Z,4.94
2019-02-17T01:44:51.239Z,4.83
2019-02-17T01:45:51.923Z,4.83
2019-02-17T01:46:52.609Z,4.98
2019-02-17T01:47:52.574Z,4.98
2019-02-17T01:48:52.977Z,4.87
2019-02-17T01:49:53.665Z,4.9
2019-02-17T01:50:54.750Z,5.02
2019-02-17T01:51:55.160Z,4.97
2019-02-17T01:52:56.133Z,5.01
2019-02-17T01:53:56.817Z,4.97
2019-02-17T01:54:56.946Z,5
2019-02-17T01:55:58.359Z,4.98
2019-02-17T01:56:59.486Z,5.02
2019-02-17T01:57:59.681Z,5.04
2019-02-17T01:59:00.920Z,4.97
2019-02-17T02:00:02.174Z,4.98
2019-02-17T02:01:02.165Z,4.98
2019-02-17T02:02:02.679Z,5.05
2019-02-17T02:03:03.369Z,5.05
2019-02-17T02:04:04.500Z,5.07
2019-02-17T02:05:05.909Z,5.22
2019-02-17T02:06:06.888Z,5.29
2019-02-17T02:07:07.849Z,5.28
2019-02-17T02:08:08.254Z,5.31
2019-02-17T02:09:09.216Z,5.26
2019-02-17T02:10:10.206Z,5.26
2019-02-17T02:11:10.417Z,5.38
2019-02-17T02:12:10.833Z,5.31
2019-02-17T02:13:11.797Z,5.25
2019-02-17T02:14:12.485Z,5.28
2019-02-17T02:15:13.479Z,5.25
2019-02-17T02:16:13.936Z,5.25
2019-02-17T02:17:14.340Z,5.29
2019-02-17T02:18:14.748Z,5.23
2019-02-17T02:19:16.436Z,5.19
2019-02-17T02:20:16.839Z,5.26
2019-02-17T02:21:17.679Z,5.19
2019-02-17T02:22:18.375Z,5.13
2019-02-17T02:23:20.070Z,5.12
2019-02-17T02:24:21.060Z,5.1
2019-02-17T02:25:21.464Z,5.08
2019-02-17T02:26:22.599Z,5.13
2019-02-17T02:27:23.726Z,5.12
2019-02-17T02:28:24.424Z,5.05
2019-02-17T02:29:25.155Z,5.07
2019-02-17T02:30:26.850Z,5.04
2019-02-17T02:31:26.841Z,5.1
2019-02-17T02:32:27.916Z,5.04
2019-02-17T02:33:28.882Z,5.02
2019-02-17T02:34:29.409Z,5.07
2019-02-17T02:35:30.372Z,5.02
2019-02-17T02:36:30.953Z,5.02
2019-02-17T02:37:31.196Z,5.07
2019-02-17T02:38:30.902Z,5.05
2019-02-17T02:39:31.871Z,5.08
2019-02-17T02:40:32.276Z,4.95
2019-02-17T02:41:36.403Z,5.02
2019-02-17T02:42:37.679Z,5
2019-02-17T02:43:38.098Z,4.98
2019-02-17T02:44:38.509Z,5.04
2019-02-17T02:45:39.764Z,5.01
2019-02-17T02:46:40.733Z,4.89
2019-02-17T02:47:41.141Z,4.87
2019-02-17T02:48:42.377Z,4.87
2019-02-17T02:49:42.915Z,4.86
2019-02-17T02:50:43.382Z,4.78
2019-02-17T02:51:44.357Z,4.87
2019-02-17T02:52:45.608Z,4.83
2019-02-17T02:53:45.903Z,4.79
2019-02-17T02:54:46.611Z,4.84
2019-02-17T02:55:47.146Z,4.79
2019-02-17T02:56:48.392Z,4.78
2019-02-17T02:57:49.171Z,4.95
2019-02-17T02:58:50.149Z,4.87
2019-02-17T02:59:53.884Z,4.84
2019-02-17T03:00:54.584Z,4.83
2019-02-17T03:01:55.284Z,4.87
2019-02-17T03:02:56.536Z,4.87
2019-02-17T03:03:56.796Z,4.87
2019-02-17T03:04:57.212Z,4.86
2019-02-17T03:05:57.614Z,4.86
2019-02-17T03:06:58.022Z,4.83
2019-02-17T03:07:58.985Z,4.82
2019-02-17T03:08:58.986Z,4.83
2019-02-17T03:09:59.956Z,4.82
2019-02-17T03:11:00.648Z,4.79
2019-02-17T03:12:02.325Z,4.67
2019-02-17T03:13:02.290Z,4.57
2019-02-17T03:14:02.713Z,4.67
2019-02-17T03:15:04.143Z,4.66
2019-02-17T03:16:05.551Z,4.66
2019-02-17T03:17:05.514Z,4.61
2019-02-17T03:18:06.513Z,4.64
2019-02-17T03:19:06.644Z,4.68
2019-02-17T03:20:07.061Z,4.56
2019-02-17T03:21:08.307Z,4.57
2019-02-17T03:22:08.976Z,4.52
2019-02-17T03:23:10.066Z,4.76
2019-02-17T03:24:10.337Z,4.74
2019-02-17T03:25:11.295Z,4.68
2019-02-17T03:26:11.997Z,4.75
2019-02-17T03:27:12.928Z,4.66
2019-02-17T03:28:13.907Z,4.63
2019-02-17T03:29:14.713Z,4.71
2019-02-17T03:30:15.728Z,4.63
2019-02-17T03:31:16.840Z,4.63
2019-02-17T03:32:17.693Z,4.76
2019-02-17T03:33:18.620Z,4.74
2019-02-17T03:34:19.441Z,4.67
2019-02-17T03:35:19.901Z,4.64
2019-02-17T03:36:21.753Z,4.7
2019-02-17T03:37:21.458Z,4.64
2019-02-17T03:38:22.144Z,4.64
2019-02-17T03:39:22.894Z,4.67
2019-02-17T03:40:24.133Z,4.66
2019-02-17T03:41:24.537Z,4.57
2019-02-17T03:42:25.960Z,4.52
2019-02-17T03:43:26.093Z,4.53
2019-02-17T03:44:27.365Z,4.49
2019-02-17T03:45:28.063Z,4.57
2019-02-17T03:46:28.752Z,4.58
2019-02-17T03:47:28.888Z,4.53
2019-02-17T03:48:29.861Z,4.57
2019-02-17T03:49:30.819Z,4.52
2019-02-17T03:50:31.586Z,4.43
2019-02-17T03:51:31.993Z,4.46
2019-02-17T03:52:33.136Z,4.45
2019-02-17T03:53:34.376Z,4.46
2019-02-17T03:54:34.794Z,4.56
2019-02-17T03:55:35.480Z,4.42
2019-02-17T03:56:36.725Z,4.49
2019-02-17T03:57:37.280Z,4.48
2019-02-17T03:58:38.246Z,4.49
2019-02-17T03:59:39.259Z,4.5
2019-02-17T04:00:39.940Z,4.52
2019-02-17T04:01:40.210Z,4.49
2019-02-17T04:02:40.860Z,4.45
2019-02-17T04:03:41.618Z,4.52
2019-02-17T04:04:42.016Z,4.5
2019-02-17T04:05:43.003Z,4.56
2019-02-17T04:06:43.802Z,4.57
2019-02-17T04:07:45.319Z,4.66
2019-02-17T04:08:45.007Z,4.58
2019-02-17T04:09:46.249Z,4.57
2019-02-17T04:10:47.491Z,4.58
2019-02-17T04:11:48.185Z,4.63
2019-02-17T04:12:49.590Z,4.52
2019-02-17T04:13:50.276Z,4.67
2019-02-17T04:14:50.809Z,4.75
2019-02-17T04:15:51.790Z,4.68
2019-02-17T04:16:52.308Z,4.71
2019-02-17T04:17:53.617Z,4.76
2019-02-17T04:18:54.866Z,4.66
2019-02-17T04:19:54.834Z,4.68
2019-02-17T04:20:55.795Z,4.7
2019-02-17T04:21:55.952Z,4.71
2019-02-17T04:22:56.915Z,4.66
2019-02-17T04:23:57.334Z,4.71
2019-02-17T04:24:58.024Z,4.64
2019-02-17T04:25:58.543Z,4.63
2019-02-17T04:26:59.266Z,4.7
2019-02-17T04:27:59.787Z,4.7
2019-02-17T04:29:00.196Z,4.67
2019-02-17T04:30:00.948Z,4.82
2019-02-17T04:31:01.927Z,4.82
2019-02-17T04:32:02.091Z,4.83
2019-02-17T04:33:02.708Z,4.82
2019-02-17T04:34:03.130Z,4.84
2019-02-17T04:35:03.565Z,4.86
2019-02-17T04:36:04.269Z,4.79
2019-02-17T04:37:05.010Z,4.82
2019-02-17T04:38:05.695Z,4.82
2019-02-17T04:39:06.661Z,4.82
2019-02-17T04:40:07.357Z,4.87
2019-02-17T04:41:08.603Z,4.79
2019-02-17T04:42:08.353Z,4.71
2019-02-17T04:43:09.834Z,4.75
2019-02-17T04:44:10.807Z,4.64
2019-02-17T04:45:12.073Z,4.64
2019-02-17T04:46:13.363Z,4.68
2019-02-17T04:47:13.766Z,4.68
2019-02-17T04:48:14.449Z,4.68
2019-02-17T04:49:14.884Z,4.71
2019-02-17T04:50:15.847Z,4.71
2019-02-17T04:51:16.836Z,4.71
2019-02-17T04:52:17.375Z,4.67
2019-02-17T04:53:17.775Z,4.75
2019-02-17T04:54:18.062Z,4.63
2019-02-17T04:55:19.196Z,4.71
2019-02-17T04:56:19.968Z,4.68
2019-02-17T04:57:20.438Z,4.76
2019-02-17T04:58:21.401Z,4.66
2019-02-17T04:59:21.809Z,4.67
2019-02-17T05:00:23.772Z,4.66
2019-02-17T05:01:24.462Z,4.63
2019-02-17T05:02:25.979Z,4.74
2019-02-17T05:03:26.397Z,4.7
2019-02-17T05:04:26.668Z,4.74
2019-02-17T05:05:27.364Z,4.7
2019-02-17T05:06:28.791Z,4.78
2019-02-17T05:07:29.485Z,4.78
2019-02-17T05:08:30.172Z,4.78
2019-02-17T05:09:30.613Z,4.78
2019-02-17T05:10:31.133Z,4.79
2019-02-17T05:11:31.108Z,4.76
2019-02-17T05:12:31.843Z,4.76
2019-02-17T05:13:32.541Z,4.78
2019-02-17T05:14:32.948Z,4.71
2019-02-17T05:15:33.362Z,4.79
2019-02-17T05:16:34.612Z,4.79
2019-02-17T05:17:34.867Z,4.74
2019-02-17T05:18:35.556Z,4.7
2019-02-17T05:19:36.245Z,4.76
2019-02-17T05:20:36.655Z,4.79
2019-02-17T05:21:37.626Z,4.64
2019-02-17T05:22:41.184Z,4.66
2019-02-17T05:23:41.580Z,4.7
2019-02-17T05:24:42.270Z,4.64
2019-02-17T05:25:43.529Z,4.56
2019-02-17T05:26:44.091Z,4.76
2019-02-17T05:27:44.798Z,4.67
2019-02-17T05:28:44.773Z,4.67
2019-02-17T05:29:45.747Z,4.64
2019-02-17T05:30:57.682Z,4.66
2019-02-17T05:31:58.367Z,4.66
2019-02-17T05:33:00.167Z,4.7
2019-02-17T05:34:01.134Z,4.66
2019-02-17T05:35:01.591Z,4.63
2019-02-17T05:36:01.835Z,4.6
2019-02-17T05:37:03.093Z,4.76
2019-02-17T05:38:03.778Z,4.74
2019-02-17T05:39:04.305Z,4.71
2019-02-17T05:40:04.727Z,4.66
2019-02-17T05:41:04.894Z,4.66
2019-02-17T05:42:05.734Z,4.48
2019-02-17T05:43:06.205Z,4.48
2019-02-17T05:44:06.634Z,4.52
2019-02-17T05:45:07.647Z,4.53
2019-02-17T05:46:07.891Z,4.49
2019-02-17T05:47:08.031Z,4.45
2019-02-17T05:48:08.717Z,4.45
2019-02-17T05:49:09.694Z,4.43
2019-02-17T05:50:09.384Z,4.48
2019-02-17T05:51:10.521Z,4.46
2019-02-17T05:52:11.213Z,4.3
2019-02-17T05:53:12.457Z,4.31
2019-02-17T05:54:12.150Z,4.31
2019-02-17T05:55:12.850Z,4.22
2019-02-17T05:56:13.268Z,4.31
2019-02-17T05:57:14.510Z,4.31
2019-02-17T05:58:14.762Z,4.22
2019-02-17T05:59:15.450Z,4.34
2019-02-17T06:00:15.949Z,4.32
2019-02-17T06:01:16.637Z,4.31
2019-02-17T06:02:17.763Z,4.48
2019-02-17T06:03:18.731Z,4.4
2019-02-17T06:04:19.419Z,4.48
2019-02-17T06:05:20.730Z,4.53
2019-02-17T06:06:21.417Z,4.57
2019-02-17T06:07:22.674Z,4.49
2019-02-17T06:08:22.390Z,4.48
2019-02-17T06:09:23.084Z,4.53
2019-02-17T06:10:24.225Z,4.43
2019-02-17T06:11:25.200Z,4.45
2019-02-17T06:12:25.899Z,4.45
2019-02-17T06:13:26.586Z,4.57
2019-02-17T06:14:27.830Z,4.53
2019-02-17T06:15:28.101Z,4.56
2019-02-17T06:16:28.797Z,4.61
2019-02-17T06:17:28.946Z,4.53
2019-02-17T06:18:29.640Z,4.58
2019-02-17T06:19:30.941Z,4.52
2019-02-17T06:20:31.909Z,4.66
2019-02-17T06:21:32.320Z,4.56
2019-02-17T06:22:33.447Z,4.64
2019-02-17T06:23:33.856Z,4.66
2019-02-17T06:24:34.822Z,4.67
2019-02-17T06:25:35.530Z,4.61
2019-02-17T06:26:36.774Z,4.66
2019-02-17T06:27:37.491Z,4.71
2019-02-17T06:28:37.907Z,4.71
2019-02-17T06:29:38.316Z,4.68
2019-02-17T06:30:39.723Z,4.61
2019-02-17T06:31:40.418Z,4.67
2019-02-17T06:32:41.244Z,4.66
2019-02-17T06:33:41.207Z,4.61
2019-02-17T06:34:41.899Z,4.66
2019-02-17T06:35:43.595Z,4.63
2019-02-17T06:36:43.573Z,4.67
2019-02-17T06:37:45.120Z,4.56
2019-02-17T06:38:45.105Z,4.6
2019-02-17T06:39:45.792Z,4.53
2019-02-17T06:40:46.482Z,4.58
2019-02-17T06:41:47.183Z,4.52
2019-02-17T06:42:47.626Z,4.66
2019-02-17T06:43:48.598Z,4.86
2019-02-17T06:44:49.496Z,5.19
2019-02-17T06:45:50.188Z,5.51
2019-02-17T06:46:50.161Z,5.69
2019-02-17T06:47:50.572Z,5.94
2019-02-17T06:48:51.261Z,6.32
2019-02-17T06:49:51.955Z,6.56
2019-02-17T06:50:52.661Z,6.85
2019-02-17T06:51:53.082Z,6.87
2019-02-17T06:52:53.456Z,6.7
2019-02-17T06:53:54.153Z,6.7
2019-02-17T06:54:54.566Z,6.72
2019-02-17T06:55:55.260Z,6.95
2019-02-17T06:56:57.076Z,6.97
2019-02-17T06:57:57.123Z,7.01
2019-02-17T06:58:57.546Z,7.14
2019-02-17T06:59:57.979Z,7.4
2019-02-17T07:00:59.400Z,7.47
2019-02-17T07:02:00.651Z,7.46
2019-02-17T07:03:01.073Z,7.41
2019-02-17T07:04:02.119Z,7.41
2019-02-17T07:05:03.441Z,7.31
2019-02-17T07:06:03.924Z,7.25
2019-02-17T07:07:04.995Z,7.23
2019-02-17T07:08:05.007Z,7.19
2019-02-17T07:09:05.863Z,6.97
2019-02-17T07:10:06.340Z,6.96
2019-02-17T07:11:06.477Z,7.19
2019-02-17T07:12:07.228Z,7.13
2019-02-17T07:13:08.007Z,7.21
2019-02-17T07:14:08.977Z,7.23
2019-02-17T07:15:09.726Z,7.23
2019-02-17T07:16:10.141Z,7.22
2019-02-17T07:17:11.275Z,7.21
2019-02-17T07:18:12.245Z,7.32
2019-02-17T07:19:13.498Z,7.28
2019-02-17T07:20:13.920Z,7.28
2019-02-17T07:21:14.611Z,7.21
2019-02-17T07:22:15.136Z,7.11
2019-02-17T07:23:16.934Z,7.08
2019-02-17T07:24:17.071Z,7.03
2019-02-17T07:25:17.493Z,7.01
2019-02-17T07:26:18.913Z,7.21
2019-02-17T07:27:19.398Z,7.47
2019-02-17T07:28:20.092Z,7.72
2019-02-17T07:29:21.421Z,7.85
2019-02-17T07:30:20.860Z,8.14
2019-02-17T07:31:24.075Z,8.39
2019-02-17T07:31:36.398Z,8.53
2019-02-17T07:32:36.502Z,8.9
2019-02-17T07:33:37.656Z,9.15
2019-02-17T07:34:39.374Z,9.34
2019-02-17T07:35:39.807Z,9.58
2019-02-17T07:36:41.512Z,10.06
2019-02-17T07:37:42.352Z,10.38
2019-02-17T07:38:42.677Z,10.9
2019-02-17T07:39:43.375Z,11.62
2019-02-17T07:40:44.083Z,12.29
2019-02-17T07:41:44.506Z,12.76
2019-02-17T07:42:45.759Z,12.8
2019-02-17T07:43:46.182Z,12.91
2019-02-17T07:44:46.324Z,12.8
2019-02-17T07:45:47.473Z,12.63
2019-02-17T07:46:48.166Z,12.57
2019-02-17T07:47:49.146Z,12.48
2019-02-17T07:48:49.850Z,12.23
2019-02-17T07:49:51.106Z,12.11
2019-02-17T07:50:52.133Z,12.08
2019-02-17T07:51:52.555Z,12.18
2019-02-17T07:52:53.253Z,12.29
2019-02-17T07:53:53.674Z,12.61
2019-02-17T07:54:54.814Z,12.78
2019-02-17T07:55:56.137Z,13.02
2019-02-17T07:56:56.581Z,13.36
2019-02-17T07:57:57.277Z,13.6
2019-02-17T07:58:58.350Z,13.87
2019-02-17T07:59:59.051Z,14.23
2019-02-17T08:00:59.981Z,14.37
2019-02-17T08:01:59.963Z,14.79
2019-02-17T08:03:00.239Z,14.93
2019-02-17T08:04:01.942Z,14.52
2019-02-17T08:05:02.387Z,14.62
2019-02-17T08:06:03.586Z,14.77
2019-02-17T08:07:04.034Z,14.79
2019-02-17T08:08:05.458Z,14.55
2019-02-17T08:09:06.475Z,14.33
2019-02-17T08:10:07.453Z,14.28
2019-02-17T08:11:07.884Z,14.08
2019-02-17T08:12:08.586Z,14.33
2019-02-17T08:13:08.994Z,14.38
2019-02-17T08:14:10.727Z,14.4
2019-02-17T08:15:11.192Z,14.62
2019-02-17T08:16:12.190Z,15.22
2019-02-17T08:17:12.613Z,15.6
2019-02-17T08:18:13.036Z,15.84
2019-02-17T08:19:14.185Z,16.22
2019-02-17T08:20:15.444Z,16.72
2019-02-17T08:21:16.148Z,17.2
2019-02-17T08:22:16.872Z,17.38
2019-02-17T08:23:18.834Z,17.47
2019-02-17T08:24:19.579Z,17.63
2019-02-17T08:25:23.407Z,17.41
2019-02-17T08:26:23.661Z,17.27
2019-02-17T08:27:24.086Z,16.8
2019-02-17T08:28:25.229Z,16.72
2019-02-17T08:29:26.716Z,16.44
2019-02-17T08:30:27.866Z,16.79
2019-02-17T08:31:28.294Z,17.27
2019-02-17T08:32:29.470Z,17.71
2019-02-17T08:33:30.586Z,17.69
2019-02-17T08:34:31.292Z,17.91
2019-02-17T08:35:32.272Z,17.91
2019-02-17T08:36:32.419Z,17.88
2019-02-17T08:37:32.843Z,17.68
2019-02-17T08:38:33.825Z,17.24
2019-02-17T08:39:34.250Z,16.62
2019-02-17T08:40:35.233Z,15.99
2019-02-17T08:41:34.946Z,15.55
2019-02-17T08:42:35.649Z,15.26
2019-02-17T08:43:35.927Z,15.02
2019-02-17T08:44:36.143Z,15.02
2019-02-17T08:45:37.291Z,15.27
2019-02-17T08:46:38.335Z,15.51
2019-02-17T08:47:38.772Z,15.63
2019-02-17T08:48:39.472Z,15.73
2019-02-17T08:49:39.899Z,15.59
2019-02-17T08:50:41.157Z,15.48
2019-02-17T08:51:41.414Z,15.32
2019-02-17T08:52:41.880Z,15.14
2019-02-17T08:53:42.720Z,15.33
2019-02-17T08:54:43.700Z,15.41
2019-02-17T08:55:45.123Z,15.44
2019-02-17T08:56:47.016Z,15.3
2019-02-17T08:57:47.768Z,15.32
2019-02-17T08:58:47.751Z,15.3
2019-02-17T08:59:48.573Z,15.22
2019-02-17T09:00:48.938Z,15.11
2019-02-17T09:01:49.638Z,15.11
2019-02-17T09:02:49.787Z,15.17
2019-02-17T09:03:50.783Z,15.33
2019-02-17T09:04:51.485Z,15.75
2019-02-17T09:05:51.909Z,16.03
2019-02-17T09:06:52.344Z,16.37
2019-02-17T09:07:54.045Z,16.39
2019-02-17T09:08:54.193Z,16.41
2019-02-17T09:09:54.898Z,16.18
2019-02-17T09:10:56.108Z,15.75
2019-02-17T09:11:57.087Z,15.37
2019-02-17T09:12:57.396Z,14.85
2019-02-17T09:13:58.086Z,14.41
2019-02-17T09:14:58.509Z,14.36
2019-02-17T09:15:59.206Z,14.05
2019-02-17T09:16:59.693Z,13.73
2019-02-17T09:18:00.465Z,13.6
2019-02-17T09:19:00.912Z,13.4
2019-02-17T09:20:01.610Z,13.39
2019-02-17T09:21:02.647Z,13.47
2019-02-17T09:22:03.082Z,13.57
2019-02-17T09:23:03.577Z,13.85
2019-02-17T09:24:03.448Z,14.15
2019-02-17T09:25:04.705Z,14.61
2019-02-17T09:26:05.410Z,15.35
2019-02-17T09:27:05.893Z,16.06
2019-02-17T09:28:06.043Z,16.69
2019-02-17T09:29:06.468Z,17.23
2019-02-17T09:30:07.038Z,17.69
2019-02-17T09:31:08.021Z,17.93
2019-02-17T09:32:19.365Z,18
2019-02-17T09:33:19.646Z,18.11
2019-02-17T09:34:20.934Z,18.41
2019-02-17T09:35:20.648Z,18.57
2019-02-17T09:36:21.803Z,18.79
2019-02-17T09:37:22.600Z,19.26
2019-02-17T09:38:23.860Z,19.57
2019-02-17T09:39:24.854Z,19.99
2019-02-17T09:40:25.304Z,20.27
2019-02-17T09:41:26.573Z,20.7
2019-02-17T09:42:27.283Z,20.74
2019-02-17T09:43:27.846Z,20.48
2019-02-17T09:44:28.000Z,20.07
2019-02-17T09:45:29.439Z,20.04
2019-02-17T09:46:30.867Z,19.96
2019-02-17T09:47:31.410Z,19.85
2019-02-17T09:48:31.841Z,19.92
2019-02-17T09:49:33.111Z,19.81
2019-02-17T09:50:33.820Z,19.93
2019-02-17T09:51:34.247Z,19.96
2019-02-17T09:52:35.398Z,19.66
2019-02-17T09:53:35.968Z,19.01
2019-02-17T09:54:36.672Z,18.96
2019-02-17T09:55:37.652Z,18.76
2019-02-17T09:56:38.359Z,18.39
2019-02-17T09:57:38.507Z,18.55
2019-02-17T09:58:39.769Z,18.64
2019-02-17T09:59:40.755Z,18.78
2019-02-17T10:00:41.463Z,19.15
2019-02-17T10:01:43.639Z,19.55
2019-02-17T10:02:45.141Z,19.57
2019-02-17T10:03:45.986Z,19.04
2019-02-17T10:04:47.938Z,19.04
2019-02-17T10:05:48.228Z,19
2019-02-17T10:06:49.211Z,19.24
2019-02-17T10:07:52.513Z,19.48
2019-02-17T10:08:53.213Z,19.67
2019-02-17T10:09:53.918Z,19.72
2019-02-17T10:10:54.069Z,19.63
2019-02-17T10:11:55.395Z,19.53
2019-02-17T10:12:55.831Z,19.49
2019-02-17T10:13:57.228Z,19.41
2019-02-17T10:14:57.935Z,19.52
2019-02-17T10:15:58.363Z,19.59
2019-02-17T10:16:58.793Z,19.64
2019-02-17T10:18:00.219Z,19.85
2019-02-17T10:19:00.926Z,20
2019-02-17T10:20:01.638Z,20.34
2019-02-17T10:21:02.346Z,20.55
2019-02-17T10:22:03.051Z,20.73
2019-02-17T10:23:03.241Z,21.01
2019-02-17T10:24:03.934Z,20.96
2019-02-17T10:25:04.645Z,21.1
2019-02-17T10:26:06.351Z,20.85
2019-02-17T10:27:06.893Z,21.05
2019-02-17T10:28:07.394Z,20.95
2019-02-17T10:29:07.882Z,21.17
2019-02-17T10:30:08.585Z,21.11
2019-02-17T10:31:09.575Z,20.74
2019-02-17T10:32:09.564Z,20.78
2019-02-17T10:33:11.267Z,20.67
2019-02-17T10:34:11.209Z,20.78
2019-02-17T10:35:12.921Z,21.19
2019-02-17T10:36:13.994Z,21.69
2019-02-17T10:37:14.705Z,21.68
2019-02-17T10:38:16.434Z,22.04
2019-02-17T10:39:16.871Z,22.37
2019-02-17T10:40:17.858Z,22.49
2019-02-17T10:41:18.867Z,22.76
2019-02-17T10:42:19.856Z,22.93
2019-02-17T10:43:20.568Z,23.07
2019-02-17T10:44:20.494Z,23.16
2019-02-17T10:45:20.927Z,23.42
2019-02-17T10:46:22.096Z,23.51
2019-02-17T10:47:22.527Z,23.39
2019-02-17T10:48:23.793Z,23.26
2019-02-17T10:49:24.510Z,22.62
2019-02-17T10:50:24.666Z,22.76
2019-02-17T10:51:27.712Z,22.76
2019-02-17T10:52:29.038Z,22.76
2019-02-17T10:53:29.744Z,22.73
2019-02-17T10:54:30.349Z,22.4
2019-02-17T10:55:31.341Z,22.7
2019-02-17T10:56:32.882Z,22.44
2019-02-17T10:57:33.598Z,22.33
2019-02-17T10:58:34.881Z,21.59
2019-02-17T10:59:35.146Z,21.32
2019-02-17T11:00:35.579Z,21.56
2019-02-17T11:01:36.387Z,21.65
2019-02-17T11:02:49.088Z,21.3
2019-02-17T11:03:49.660Z,21.11
2019-02-17T11:04:50.102Z,20.93
2019-02-17T11:05:50.532Z,20.98
2019-02-17T11:06:51.691Z,21
2019-02-17T11:07:52.404Z,21.03
2019-02-17T11:08:53.123Z,21.22
2019-02-17T11:09:53.278Z,21.29
2019-02-17T11:10:53.989Z,21.35
2019-02-17T11:11:55.249Z,21.53
2019-02-17T11:12:55.701Z,21.68
2019-02-17T11:13:56.117Z,21.8
2019-02-17T11:14:56.550Z,21.91
2019-02-17T11:15:57.719Z,21.85
2019-02-17T11:16:58.703Z,22
2019-02-17T11:17:59.137Z,22.08
2019-02-17T11:19:00.566Z,21.99
2019-02-17T11:20:01.277Z,21.83
2019-02-17T11:21:01.711Z,21.83
2019-02-17T11:22:02.428Z,21.84
2019-02-17T11:23:02.707Z,21.75
2019-02-17T11:24:04.113Z,21.75
2019-02-17T11:25:03.864Z,21.14
2019-02-17T11:26:05.009Z,21.01
2019-02-17T11:27:06.439Z,21.03
2019-02-17T11:28:07.706Z,21.1
2019-02-17T11:29:08.415Z,21.29
2019-02-17T11:30:09.462Z,21.3
2019-02-17T11:31:10.626Z,21.19
2019-02-17T11:32:11.058Z,20.93
2019-02-17T11:33:12.046Z,20.7
2019-02-17T11:34:12.893Z,20.71
2019-02-17T11:35:13.342Z,20.52
2019-02-17T11:36:14.328Z,20.33
2019-02-17T11:37:15.050Z,20.39
2019-02-17T11:38:16.202Z,20.36
2019-02-17T11:39:17.627Z,20.34
2019-02-17T11:40:18.134Z,20.34
2019-02-17T11:41:18.288Z,20.52
2019-02-17T11:42:19.276Z,20.64
2019-02-17T11:43:19.705Z,20.52
2019-02-17T11:44:20.378Z,20.24
2019-02-17T11:45:21.085Z,20.39
2019-02-17T11:46:21.554Z,20.46
2019-02-17T11:47:22.544Z,20.6
2019-02-17T11:48:23.529Z,20.77
2019-02-17T11:49:23.683Z,20.78
2019-02-17T11:50:25.692Z,20.73
2019-02-17T11:51:25.677Z,20.6
2019-02-17T11:52:26.403Z,20.6
2019-02-17T11:53:27.551Z,20.71
2019-02-17T11:54:28.129Z,20.6
2019-02-17T11:55:28.832Z,20.68
2019-02-17T11:56:29.259Z,20.63
2019-02-17T11:57:31.075Z,20.6
2019-02-17T11:58:30.782Z,20.63
2019-02-17T11:59:31.765Z,20.63
2019-02-17T12:00:31.990Z,20.68
2019-02-17T12:01:33.699Z,20.83
2019-02-17T12:02:34.134Z,20.88
2019-02-17T12:03:35.390Z,20.9
2019-02-17T12:04:36.105Z,20.77
2019-02-17T12:05:37.117Z,20.15
2019-02-17T12:06:37.820Z,19.82
2019-02-17T12:07:38.248Z,19.49
2019-02-17T12:08:38.952Z,19.22
2019-02-17T12:09:38.955Z,18.82
2019-02-17T12:10:40.387Z,18.71
2019-02-17T12:11:41.373Z,18.86
2019-02-17T12:12:42.147Z,18.91
2019-02-17T12:13:42.862Z,18.79
2019-02-17T12:14:43.847Z,18.64
2019-02-17T12:15:44.838Z,18.43
2019-02-17T12:16:45.262Z,18.21
2019-02-17T12:17:46.268Z,18.27
2019-02-17T12:18:46.194Z,18.24
2019-02-17T12:19:46.902Z,18.03
2019-02-17T12:20:47.614Z,17.9
2019-02-17T12:21:48.597Z,17.8
2019-02-17T12:22:49.598Z,17.78
2019-02-17T12:23:50.029Z,17.93
2019-02-17T12:24:50.427Z,17.91
2019-02-17T12:25:51.134Z,17.84
2019-02-17T12:26:52.561Z,17.94
2019-02-17T12:27:52.994Z,17.76
2019-02-17T12:28:54.145Z,17.8
2019-02-17T12:29:55.601Z,17.95
2019-02-17T12:30:56.587Z,17.95
2019-02-17T12:31:59.095Z,17.95
2019-02-17T12:33:00.083Z,17.95
2019-02-17T12:34:00.319Z,17.98
2019-02-17T12:35:01.718Z,18.18
2019-02-17T12:36:01.723Z,18.21
2019-02-17T12:37:02.426Z,18.13
2019-02-17T12:38:03.409Z,18.23
2019-02-17T12:39:03.837Z,18.03
2019-02-17T12:40:04.559Z,18.06
2019-02-17T12:41:05.987Z,18.06
2019-02-17T12:42:06.976Z,18.09
2019-02-17T12:43:07.478Z,18.16
2019-02-17T12:44:08.630Z,18.15
2019-02-17T12:45:10.032Z,18.28
2019-02-17T12:46:11.016Z,18.37
2019-02-17T12:47:11.720Z,18.41
2019-02-17T12:48:12.986Z,18.37
2019-02-17T12:49:13.691Z,18.43
2019-02-17T12:50:13.910Z,18.36
2019-02-17T12:51:14.615Z,18.37
2019-02-17T12:52:14.604Z,18.31
2019-02-17T12:53:16.314Z,18.33
2019-02-17T12:54:17.022Z,18.43
2019-02-17T12:55:17.312Z,18.28
2019-02-17T12:56:18.783Z,18.46
2019-02-17T12:57:19.211Z,18.41
2019-02-17T12:58:31.774Z,18.37
2019-02-17T12:59:32.964Z,18.41
2019-02-17T13:00:32.946Z,18.36
2019-02-17T13:01:34.216Z,18.45
2019-02-17T13:02:33.926Z,18.31
2019-02-17T13:03:35.188Z,18.37
2019-02-17T13:04:35.895Z,18.52
2019-02-17T13:05:36.656Z,18.61
2019-02-17T13:06:37.083Z,18.68
2019-02-17T13:07:37.788Z,18.67
2019-02-17T13:08:38.216Z,18.7
2019-02-17T13:09:39.408Z,18.71
2019-02-17T13:10:40.116Z,18.7
2019-02-17T13:11:40.550Z,18.67
2019-02-17T13:12:41.731Z,18.55
2019-02-17T13:13:42.441Z,18.6
2019-02-17T13:14:42.944Z,18.63
2019-02-17T13:15:43.422Z,18.52
2019-02-17T13:16:44.693Z,18.57
2019-02-17T13:17:45.398Z,18.7
2019-02-17T13:18:45.834Z,18.71
2019-02-17T13:19:47.233Z,18.91